Noonan, North Dakota
Current Conditions -  °F | °C
As of 8:55 AM on Thursday 30 Oct 2014 (Local Time) from KD50 Reporting Station
Overcast Overcast  
Wind Chill: 25°   Ceiling: 800
Heat Index: 32°   Visibility: 7mi
Dew Point: 32°   Wind: 8mph
Humidity: 100%   Direction: 10°N
Pressure: 30.34"   Gusts: NA
Location:  48.89°N, 103.01°W
Report Text: KD50 301355Z AUTO 01007KT 7SM BKN008 OVC013 00/00 A3034 RMK AO2
Loading
Personal Weather Stations






























Interactive Weather Map
Tropical Storm Tracking
New forecast layout! Learn more

10-Day Weather Forecast

Advertisements
Track Severe Weather on mobile